Time;durP1;ratioP1;P1;durP2;ratioP2;P2;SDS_P1;SDS_P2;PMS_P1;PMS_P2;Temp;Humidity;BMP_temperature;BMP_pressure;BME280_temperature;BME280_humidity;BME280_pressure;Samples;Min_cycle;Max_cycle;Signal;HPM_P1;HPM_P2
2023/12/13 00:00:26;;;;;;;8.10;4.10;;;;;;;;;;4955889;29;20054;-67
2023/12/13 00:02:52;;;;;;;4.55;3.78;;;;;;;;;;4955386;29;20435;-67
2023/12/13 00:05:17;;;;;;;5.95;3.85;;;;;;;;;;4955559;29;20391;-67
2023/12/13 00:07:42;;;;;;;4.60;3.75;;;;;;;;;;4955289;29;20511;-68
2023/12/13 00:10:08;;;;;;;5.93;4.15;;;;;;;;;;4955305;29;20028;-68
2023/12/13 00:12:34;;;;;;;5.53;3.72;;;;;;;;;;4955044;29;20046;-69
2023/12/13 00:14:59;;;;;;;7.28;3.95;;;;;;;;;;4937770;29;20030;-69
2023/12/13 00:17:25;;;;;;;5.22;3.95;;;;;;;;;;4954757;29;20066;-67
2023/12/13 00:19:50;;;;;;;5.85;3.75;;;;;;;;;;4954936;29;20019;-67
2023/12/13 00:22:16;;;;;;;4.88;3.53;;;;;;;;;;4954989;29;20357;-66
2023/12/13 00:24:42;;;;;;;4.68;3.78;;;;;;;;;;4954641;29;20042;-67
2023/12/13 00:27:07;;;;;;;4.90;3.60;;;;;;;;;;4954278;29;20042;-67
2023/12/13 00:29:33;;;;;;;5.50;3.75;;;;;;;;;;4954703;29;20022;-67
2023/12/13 00:31:58;;;;;;;6.80;3.80;;;;;;;;;;4955190;29;20058;-67
2023/12/13 00:34:24;;;;;;;5.47;3.83;;;;;;;;;;4954256;28;20034;-67
2023/12/13 00:36:50;;;;;;;5.50;4.47;;;;;;;;;;4954989;29;20388;-67
2023/12/13 00:39:18;;;;;;;5.40;3.90;;;;;;;;;;4955302;29;20461;-67
2023/12/13 00:41:44;;;;;;;7.05;3.83;;;;;;;;;;4954892;29;20102;-69
2023/12/13 00:44:09;;;;;;;4.85;3.60;;;;;;;;;;4954948;29;20113;-69
2023/12/13 00:46:35;;;;;;;5.30;3.97;;;;;;;;;;4954937;29;20055;-68
2023/12/13 00:49:00;;;;;;;5.20;3.85;;;;;;;;;;4954816;29;20082;-68
2023/12/13 00:51:26;;;;;;;4.78;3.70;;;;;;;;;;4955052;29;20031;-69
2023/12/13 00:53:51;;;;;;;5.95;3.50;;;;;;;;;;4954891;29;20035;-68
2023/12/13 00:56:17;;;;;;;4.68;3.88;;;;;;;;;;4954902;29;20035;-68
2023/12/13 00:58:45;;;;;;;4.63;3.80;;;;;;;;;;4954613;29;20031;-69
2023/12/13 01:01:11;;;;;;;5.03;4.05;;;;;;;;;;4954546;29;20071;-68
2023/12/13 01:03:36;;;;;;;5.32;3.60;;;;;;;;;;4954532;29;20403;-68
2023/12/13 01:06:06;;;;;;;4.82;3.90;;;;;;;;;;4954989;29;20023;-67
2023/12/13 01:08:32;;;;;;;4.88;3.47;;;;;;;;;;4954558;29;20023;-68
2023/12/13 01:10:57;;;;;;;6.35;3.40;;;;;;;;;;4954420;29;20373;-68
2023/12/13 01:13:23;;;;;;;5.45;3.75;;;;;;;;;;4954504;29;20031;-67
2023/12/13 01:15:49;;;;;;;3.92;3.42;;;;;;;;;;4954175;29;20093;-68
2023/12/13 01:18:14;;;;;;;5.03;3.88;;;;;;;;;;4953833;29;20468;-68
2023/12/13 01:20:40;;;;;;;5.88;4.10;;;;;;;;;;4954856;29;20029;-68
2023/12/13 01:23:06;;;;;;;4.25;3.72;;;;;;;;;;4953439;29;20428;-67
2023/12/13 01:25:31;;;;;;;5.72;4.03;;;;;;;;;;4954519;29;20031;-67
2023/12/13 01:27:57;;;;;;;4.88;3.63;;;;;;;;;;4933092;29;20047;-67
2023/12/13 01:30:23;;;;;;;5.90;3.78;;;;;;;;;;4934254;29;20496;-67
2023/12/13 01:32:49;;;;;;;4.97;3.80;;;;;;;;;;4934548;29;20047;-68
2023/12/13 01:35:14;;;;;;;4.18;3.70;;;;;;;;;;4935315;29;20036;-68
2023/12/13 01:37:40;;;;;;;4.82;3.55;;;;;;;;;;4935294;29;20473;-68
2023/12/13 01:40:07;;;;;;;4.57;3.83;;;;;;;;;;4935052;29;20520;-68
2023/12/13 01:42:36;;;;;;;5.75;3.90;;;;;;;;;;4935097;29;20035;-69
2023/12/13 01:45:02;;;;;;;4.38;3.72;;;;;;;;;;4935986;29;20115;-68
2023/12/13 01:47:28;;;;;;;4.97;3.55;;;;;;;;;;4939292;29;20063;-68
2023/12/13 01:49:54;;;;;;;4.82;3.55;;;;;;;;;;4939161;29;20035;-68
2023/12/13 01:52:20;;;;;;;5.88;3.83;;;;;;;;;;4939007;29;20106;-69
2023/12/13 01:54:47;;;;;;;5.88;4.53;;;;;;;;;;4939304;29;20477;-68
2023/12/13 01:57:14;;;;;;;5.00;3.50;;;;;;;;;;4938967;29;20032;-69
2023/12/13 01:59:41;;;;;;;6.10;4.03;;;;;;;;;;4938936;29;20078;-69
2023/12/13 02:02:06;;;;;;;4.63;3.72;;;;;;;;;;4938767;29;20035;-68
2023/12/13 02:04:35;;;;;;;5.97;3.63;;;;;;;;;;4938708;29;20028;-69
2023/12/13 02:07:01;;;;;;;6.30;3.90;;;;;;;;;;4938595;29;20031;-68
2023/12/13 02:09:26;;;;;;;6.88;4.20;;;;;;;;;;4938178;29;20043;-69
2023/12/13 02:11:52;;;;;;;7.30;3.70;;;;;;;;;;4938649;29;20023;-69
2023/12/13 02:14:18;;;;;;;4.57;3.60;;;;;;;;;;4934805;29;20044;-70
2023/12/13 02:16:43;;;;;;;7.03;4.13;;;;;;;;;;4917874;29;20028;-69
2023/12/13 02:19:10;;;;;;;5.70;3.65;;;;;;;;;;4925992;29;20067;-70
2023/12/13 02:21:37;;;;;;;4.13;3.70;;;;;;;;;;4926146;29;20039;-69
2023/12/13 02:24:04;;;;;;;5.15;3.42;;;;;;;;;;4925747;29;20028;-69
2023/12/13 02:26:30;;;;;;;5.55;3.70;;;;;;;;;;4931242;28;20051;-69
2023/12/13 02:28:56;;;;;;;5.75;3.53;;;;;;;;;;4963525;28;20041;-69
2023/12/13 02:31:23;;;;;;;7.57;3.50;;;;;;;;;;4965545;28;20419;-69
2023/12/13 02:33:49;;;;;;;4.75;3.63;;;;;;;;;;4964094;28;20050;-68
2023/12/13 02:36:14;;;;;;;5.15;3.72;;;;;;;;;;4956149;29;20027;-66
2023/12/13 02:38:41;;;;;;;5.72;3.47;;;;;;;;;;4957525;29;20023;-69
2023/12/13 02:41:08;;;;;;;5.10;3.65;;;;;;;;;;4956927;29;20071;-69
2023/12/13 02:43:33;;;;;;;5.50;4.25;;;;;;;;;;4955640;29;20035;-69
2023/12/13 02:45:59;;;;;;;6.22;4.00;;;;;;;;;;4956482;29;20027;-69
2023/12/13 02:48:25;;;;;;;7.53;3.53;;;;;;;;;;4956614;29;20027;-69
2023/12/13 02:50:52;;;;;;;5.18;3.83;;;;;;;;;;4957024;29;20045;-69
2023/12/13 02:53:19;;;;;;;6.10;4.18;;;;;;;;;;4957467;29;20427;-69
2023/12/13 02:55:45;;;;;;;3.90;3.53;;;;;;;;;;4957161;28;20098;-69
2023/12/13 02:58:11;;;;;;;5.63;3.30;;;;;;;;;;4956069;29;20494;-69
2023/12/13 03:00:36;;;;;;;3.83;3.13;;;;;;;;;;4956778;29;20041;-69
2023/12/13 03:03:02;;;;;;;3.80;3.30;;;;;;;;;;4956834;29;20023;-69
2023/12/13 03:05:27;;;;;;;4.65;3.70;;;;;;;;;;4956705;29;20098;-69
2023/12/13 03:07:53;;;;;;;4.95;3.72;;;;;;;;;;4956672;29;20035;-69
2023/12/13 03:10:19;;;;;;;5.07;3.55;;;;;;;;;;4956675;29;20504;-69
2023/12/13 03:12:44;;;;;;;4.53;3.63;;;;;;;;;;4956583;29;20031;-69
2023/12/13 03:15:10;;;;;;;4.32;3.38;;;;;;;;;;4956778;29;20110;-70
2023/12/13 03:17:35;;;;;;;4.55;3.55;;;;;;;;;;4956604;29;20440;-69
2023/12/13 03:20:01;;;;;;;3.92;3.20;;;;;;;;;;4956544;29;20058;-69
2023/12/13 03:22:27;;;;;;;4.63;3.22;;;;;;;;;;4956493;29;20531;-69
2023/12/13 03:24:56;;;;;;;4.40;3.70;;;;;;;;;;4956410;29;20118;-69
2023/12/13 03:27:21;;;;;;;4.35;3.47;;;;;;;;;;4956196;29;20412;-69
2023/12/13 03:29:48;;;;;;;4.80;3.55;;;;;;;;;;4956387;29;20031;-69
2023/12/13 03:32:13;;;;;;;4.28;3.67;;;;;;;;;;4956130;29;20114;-70
2023/12/13 03:34:39;;;;;;;3.58;3.28;;;;;;;;;;4956242;29;20170;-69
2023/12/13 03:37:06;;;;;;;4.68;3.70;;;;;;;;;;4956452;29;20034;-70
2023/12/13 03:39:35;;;;;;;4.50;3.33;;;;;;;;;;4956108;29;20030;-70
2023/12/13 03:42:00;;;;;;;5.32;3.50;;;;;;;;;;4956396;29;20396;-69
2023/12/13 03:44:26;;;;;;;3.80;3.38;;;;;;;;;;4956085;29;20031;-69
2023/12/13 03:46:54;;;;;;;6.40;3.95;;;;;;;;;;4955944;29;20031;-69
2023/12/13 03:49:19;;;;;;;5.05;3.60;;;;;;;;;;4956009;29;20031;-69
2023/12/13 03:51:47;;;;;;;5.55;3.92;;;;;;;;;;4955893;29;20023;-71
2023/12/13 03:54:13;;;;;;;3.95;3.55;;;;;;;;;;4955723;29;20114;-68
2023/12/13 03:56:39;;;;;;;4.25;3.60;;;;;;;;;;4955919;29;20027;-69
2023/12/13 03:59:04;;;;;;;4.82;3.85;;;;;;;;;;4955756;29;20165;-68
2023/12/13 04:01:30;;;;;;;4.00;3.47;;;;;;;;;;4956027;29;20453;-71
2023/12/13 04:03:55;;;;;;;4.70;3.85;;;;;;;;;;4955676;29;20031;-69
2023/12/13 04:06:21;;;;;;;4.63;3.17;;;;;;;;;;4955798;29;20036;-71
2023/12/13 04:08:46;;;;;;;5.07;3.55;;;;;;;;;;4955660;28;20110;-68
2023/12/13 04:11:12;;;;;;;4.70;3.50;;;;;;;;;;4955629;29;20027;-70
2023/12/13 04:13:38;;;;;;;4.82;3.67;;;;;;;;;;4955436;29;20031;-69
2023/12/13 04:16:03;;;;;;;4.70;3.30;;;;;;;;;;4955538;29;20027;-69
2023/12/13 04:18:29;;;;;;;4.20;3.40;;;;;;;;;;4955433;29;20069;-68
2023/12/13 04:20:55;;;;;;;4.47;3.65;;;;;;;;;;4955375;29;20061;-71
2023/12/13 04:23:20;;;;;;;4.18;3.55;;;;;;;;;;4938134;29;20059;-71
2023/12/13 04:25:46;;;;;;;5.05;3.65;;;;;;;;;;4955308;29;20373;-69
2023/12/13 04:28:11;;;;;;;4.63;3.22;;;;;;;;;;4955149;29;20047;-70
2023/12/13 04:30:37;;;;;;;4.13;3.30;;;;;;;;;;4955256;29;20592;-69
2023/12/13 04:33:02;;;;;;;3.53;3.13;;;;;;;;;;4955111;29;20032;-69
2023/12/13 04:35:28;;;;;;;4.55;3.60;;;;;;;;;;4955105;29;20028;-69
2023/12/13 04:37:54;;;;;;;4.90;3.40;;;;;;;;;;4955084;29;20038;-69
2023/12/13 04:40:19;;;;;;;4.38;3.55;;;;;;;;;;4955050;29;20480;-69
2023/12/13 04:42:45;;;;;;;4.10;3.70;;;;;;;;;;4955058;29;20023;-71
2023/12/13 04:45:10;;;;;;;4.15;3.28;;;;;;;;;;4954977;29;20029;-69
2023/12/13 04:47:36;;;;;;;6.88;3.58;;;;;;;;;;4954879;29;20114;-70
2023/12/13 04:50:02;;;;;;;5.05;3.25;;;;;;;;;;4955149;29;20086;-69
2023/12/13 04:52:28;;;;;;;4.75;3.38;;;;;;;;;;4954816;29;20033;-69
2023/12/13 04:54:53;;;;;;;3.63;3.17;;;;;;;;;;4955184;29;20027;-70
2023/12/13 04:57:19;;;;;;;3.67;3.25;;;;;;;;;;4955049;29;20023;-70
2023/12/13 04:59:44;;;;;;;5.32;3.55;;;;;;;;;;4954994;29;20456;-70
2023/12/13 05:02:10;;;;;;;3.53;3.17;;;;;;;;;;4954694;29;20182;-68
2023/12/13 05:04:35;;;;;;;3.85;3.15;;;;;;;;;;4954630;29;20019;-69
2023/12/13 05:07:01;;;;;;;5.15;3.55;;;;;;;;;;4954584;29;20032;-70
2023/12/13 05:09:27;;;;;;;3.42;3.10;;;;;;;;;;4954826;29;20037;-68
2023/12/13 05:11:52;;;;;;;4.40;3.53;;;;;;;;;;4954622;29;20388;-69
2023/12/13 05:14:18;;;;;;;3.88;3.33;;;;;;;;;;4954982;29;20054;-68
2023/12/13 05:16:43;;;;;;;3.88;3.20;;;;;;;;;;4954502;29;20484;-68
2023/12/13 05:19:09;;;;;;;3.58;3.22;;;;;;;;;;4954360;28;20472;-69
2023/12/13 05:21:34;;;;;;;4.97;3.47;;;;;;;;;;4954241;29;20070;-69
2023/12/13 05:24:00;;;;;;;3.65;3.30;;;;;;;;;;4954377;29;20122;-69
2023/12/13 05:26:25;;;;;;;4.38;3.65;;;;;;;;;;4954235;29;20122;-71
2023/12/13 05:28:51;;;;;;;4.20;3.05;;;;;;;;;;4955021;29;20034;-70
2023/12/13 05:31:20;;;;;;;4.35;2.92;;;;;;;;;;4954451;29;20051;-68
2023/12/13 05:33:46;;;;;;;3.87;3.30;;;;;;;;;;4954846;29;20031;-68
2023/12/13 05:36:12;;;;;;;4.80;3.35;;;;;;;;;;4954394;29;20345;-68
2023/12/13 05:38:38;;;;;;;5.90;3.42;;;;;;;;;;4954285;29;20106;-68
2023/12/13 05:41:04;;;;;;;4.00;3.25;;;;;;;;;;4954230;29;20033;-70
2023/12/13 05:43:30;;;;;;;4.55;3.28;;;;;;;;;;4954257;29;20062;-68
2023/12/13 05:45:56;;;;;;;3.47;3.17;;;;;;;;;;4954489;29;20449;-70
2023/12/13 05:48:21;;;;;;;4.25;3.03;;;;;;;;;;4954266;29;20027;-69
2023/12/13 05:50:47;;;;;;;4.20;3.22;;;;;;;;;;4954411;29;20041;-69
2023/12/13 05:53:12;;;;;;;3.97;3.50;;;;;;;;;;4954130;29;20027;-69
2023/12/13 05:55:38;;;;;;;3.97;3.10;;;;;;;;;;4954286;29;20034;-69
2023/12/13 05:58:03;;;;;;;4.13;3.08;;;;;;;;;;4954146;29;20024;-70
2023/12/13 06:00:31;;;;;;;4.15;3.05;;;;;;;;;;4954364;29;20024;-69
2023/12/13 06:02:58;;;;;;;3.67;3.15;;;;;;;;;;4954740;29;20550;-69
2023/12/13 06:05:24;;;;;;;3.53;3.20;;;;;;;;;;4954106;29;20030;-69
2023/12/13 06:07:50;;;;;;;4.65;3.42;;;;;;;;;;4954020;29;20468;-69
2023/12/13 06:10:15;;;;;;;4.28;3.40;;;;;;;;;;4954268;29;20038;-69
2023/12/13 06:12:41;;;;;;;3.95;3.20;;;;;;;;;;4953929;29;20031;-70
2023/12/13 06:15:07;;;;;;;4.13;3.20;;;;;;;;;;4954259;29;20428;-69
2023/12/13 06:17:32;;;;;;;3.53;2.90;;;;;;;;;;4953957;29;20087;-71
2023/12/13 06:19:58;;;;;;;4.00;3.38;;;;;;;;;;4953980;29;20031;-69
2023/12/13 06:22:23;;;;;;;4.18;3.25;;;;;;;;;;4954199;29;20027;-70
2023/12/13 06:24:50;;;;;;;4.93;3.45;;;;;;;;;;4953926;29;20495;-69
2023/12/13 06:27:15;;;;;;;4.45;3.13;;;;;;;;;;4953698;29;20051;-69
2023/12/13 06:29:41;;;;;;;4.18;3.33;;;;;;;;;;4954140;29;20042;-69
2023/12/13 06:32:06;;;;;;;4.07;3.38;;;;;;;;;;4954913;28;20027;-69
2023/12/13 06:34:32;;;;;;;3.72;3.10;;;;;;;;;;4957920;29;20019;-70
2023/12/13 06:36:57;;;;;;;3.58;2.97;;;;;;;;;;4957342;29;20059;-70
2023/12/13 06:39:23;;;;;;;3.47;3.17;;;;;;;;;;4957502;29;20236;-69
2023/12/13 06:41:49;;;;;;;3.47;2.80;;;;;;;;;;4957254;29;20038;-69
2023/12/13 06:44:16;;;;;;;3.97;3.30;;;;;;;;;;4957179;29;20547;-69
2023/12/13 06:46:41;;;;;;;4.53;3.40;;;;;;;;;;4957108;29;20039;-69
2023/12/13 06:49:09;;;;;;;4.07;3.35;;;;;;;;;;4957106;29;20035;-69
2023/12/13 06:51:36;;;;;;;3.10;2.80;;;;;;;;;;4956982;29;20023;-69
2023/12/13 06:54:02;;;;;;;3.78;3.20;;;;;;;;;;4956827;29;20043;-69
2023/12/13 06:56:28;;;;;;;3.45;3.15;;;;;;;;;;4957201;29;20082;-69
2023/12/13 06:58:53;;;;;;;4.78;3.13;;;;;;;;;;4957968;29;20055;-69
2023/12/13 07:01:20;;;;;;;3.25;2.95;;;;;;;;;;4956905;29;20070;-69
2023/12/13 07:03:45;;;;;;;3.42;3.13;;;;;;;;;;4956789;29;20508;-68
2023/12/13 07:06:11;;;;;;;3.45;3.00;;;;;;;;;;4956994;29;20127;-68
2023/12/13 07:08:37;;;;;;;3.67;3.22;;;;;;;;;;4956661;29;20094;-68
2023/12/13 07:11:03;;;;;;;3.55;3.22;;;;;;;;;;4956944;29;20042;-68
2023/12/13 07:13:30;;;;;;;3.97;3.08;;;;;;;;;;4956818;29;20059;-68
2023/12/13 07:15:56;;;;;;;3.45;3.00;;;;;;;;;;4956908;29;20465;-68
2023/12/13 07:18:22;;;;;;;3.53;3.22;;;;;;;;;;4956664;29;20035;-69
2023/12/13 07:20:47;;;;;;;3.60;3.25;;;;;;;;;;4956598;29;20028;-70
2023/12/13 07:23:13;;;;;;;3.55;3.13;;;;;;;;;;4956767;29;20035;-69
2023/12/13 07:25:39;;;;;;;4.00;3.30;;;;;;;;;;4956471;29;20283;-68
2023/12/13 07:28:04;;;;;;;3.22;2.92;;;;;;;;;;4956296;29;20066;-69
2023/12/13 07:30:30;;;;;;;3.67;3.28;;;;;;;;;;4956328;29;20026;-69
2023/12/13 07:32:55;;;;;;;3.33;3.03;;;;;;;;;;4956251;29;20030;-70
2023/12/13 07:35:22;;;;;;;3.92;3.25;;;;;;;;;;4956570;29;20115;-69
2023/12/13 07:37:48;;;;;;;3.38;2.80;;;;;;;;;;4956485;29;20027;-69
2023/12/13 07:40:14;;;;;;;3.95;3.55;;;;;;;;;;4956191;29;20032;-69
2023/12/13 07:42:41;;;;;;;3.63;3.33;;;;;;;;;;4955800;28;20031;-69
2023/12/13 07:45:07;;;;;;;4.18;3.10;;;;;;;;;;4955992;29;20114;-69
2023/12/13 07:47:33;;;;;;;4.32;3.35;;;;;;;;;;4956347;29;20110;-71
2023/12/13 07:49:59;;;;;;;4.38;3.17;;;;;;;;;;4956035;29;20215;-69
2023/12/13 07:52:24;;;;;;;3.50;3.20;;;;;;;;;;4955881;29;20210;-70
2023/12/13 07:54:50;;;;;;;4.10;3.00;;;;;;;;;;4955849;29;20035;-69
2023/12/13 07:57:15;;;;;;;4.22;3.28;;;;;;;;;;4956179;29;20031;-70
2023/12/13 07:59:41;;;;;;;3.97;3.15;;;;;;;;;;4955766;29;20031;-71
2023/12/13 08:02:06;;;;;;;3.42;2.92;;;;;;;;;;4955798;29;20031;-69
2023/12/13 08:04:32;;;;;;;3.45;2.97;;;;;;;;;;4955678;29;20038;-69
2023/12/13 08:06:57;;;;;;;3.45;2.80;;;;;;;;;;4955852;29;20023;-69
2023/12/13 08:09:23;;;;;;;4.18;2.92;;;;;;;;;;4955875;29;20023;-69
2023/12/13 08:11:49;;;;;;;4.05;2.92;;;;;;;;;;4955573;29;20118;-68
2023/12/13 08:14:15;;;;;;;4.00;3.35;;;;;;;;;;4955512;29;20037;-68
2023/12/13 08:16:41;;;;;;;3.88;3.25;;;;;;;;;;4955743;29;20063;-68
2023/12/13 08:19:07;;;;;;;3.10;2.75;;;;;;;;;;4955445;29;20032;-69
2023/12/13 08:21:32;;;;;;;3.40;3.10;;;;;;;;;;4955670;29;20047;-69
2023/12/13 08:23:58;;;;;;;4.18;3.20;;;;;;;;;;4955281;29;20035;-69
2023/12/13 08:26:27;;;;;;;4.38;2.92;;;;;;;;;;4955364;29;20067;-69
2023/12/13 08:28:53;;;;;;;4.53;2.90;;;;;;;;;;4957230;29;20369;-68
2023/12/13 08:31:18;;;;;;;3.83;3.10;;;;;;;;;;4955192;29;20030;-69
2023/12/13 08:33:44;;;;;;;4.60;3.50;;;;;;;;;;4955058;29;20035;-69
2023/12/13 08:36:11;;;;;;;3.50;3.17;;;;;;;;;;4955459;29;20031;-69
2023/12/13 08:38:39;;;;;;;4.00;3.25;;;;;;;;;;4955083;29;20393;-69
2023/12/13 08:41:11;;;;;;;3.63;3.08;;;;;;;;;;4955031;29;20034;-69
2023/12/13 08:43:38;;;;;;;4.20;3.25;;;;;;;;;;4955292;29;20118;-69
2023/12/13 08:46:04;;;;;;;3.30;3.00;;;;;;;;;;4955004;29;20054;-69
2023/12/13 08:48:30;;;;;;;4.53;2.90;;;;;;;;;;4954915;29;20058;-69
2023/12/13 08:50:57;;;;;;;4.80;3.20;;;;;;;;;;4954865;29;20035;-69
2023/12/13 08:53:22;;;;;;;3.40;3.05;;;;;;;;;;4954778;29;20081;-69
2023/12/13 08:55:48;;;;;;;4.00;2.78;;;;;;;;;;4954218;28;20039;-69
2023/12/13 08:58:13;;;;;;;4.05;2.97;;;;;;;;;;4954811;29;20027;-70
2023/12/13 09:00:39;;;;;;;3.20;2.90;;;;;;;;;;4955051;29;20148;-70
2023/12/13 09:03:05;;;;;;;3.25;2.83;;;;;;;;;;4954757;29;20121;-70
2023/12/13 09:05:30;;;;;;;4.88;3.35;;;;;;;;;;4954604;29;20034;-70
2023/12/13 09:07:56;;;;;;;3.17;2.88;;;;;;;;;;4954575;29;20031;-70
2023/12/13 09:10:22;;;;;;;3.53;3.08;;;;;;;;;;4954458;29;20051;-71
2023/12/13 09:12:48;;;;;;;5.05;3.08;;;;;;;;;;4954440;29;20480;-71
2023/12/13 09:15:17;;;;;;;3.83;3.00;;;;;;;;;;4954775;29;20027;-71
2023/12/13 09:17:45;;;;;;;;;;;;;;;;;;4954773;29;20047;-72
2023/12/13 09:20:15;;;;;;;3.17;2.88;;;;;;;;;;4953934;29;19966;-71
2023/12/13 09:22:42;;;;;;;3.97;2.90;;;;;;;;;;4919145;29;20043;-70
2023/12/13 09:25:14;;;;;;;4.53;2.75;;;;;;;;;;4954143;29;20478;-69
2023/12/13 09:27:44;;;;;;;3.45;3.00;;;;;;;;;;4953371;29;20145;-69
2023/12/13 09:30:11;;;;;;;3.10;2.80;;;;;;;;;;4951919;29;20070;-69
2023/12/13 09:32:38;;;;;;;3.22;2.85;;;;;;;;;;4953756;29;20284;-71
2023/12/13 09:35:04;;;;;;;3.47;2.80;;;;;;;;;;4953704;29;20023;-70
2023/12/13 09:37:30;;;;;;;3.38;2.97;;;;;;;;;;4953927;29;20019;-70
2023/12/13 09:39:55;;;;;;;2.90;2.60;;;;;;;;;;4954250;29;20086;-69
2023/12/13 09:42:21;;;;;;;3.35;2.83;;;;;;;;;;4954278;29;20035;-69
2023/12/13 09:44:50;;;;;;;2.97;2.60;;;;;;;;;;4954516;29;20031;-69
2023/12/13 09:47:17;;;;;;;3.20;2.40;;;;;;;;;;4954218;29;20068;-69
2023/12/13 09:49:44;;;;;;;3.03;2.63;;;;;;;;;;4954538;29;20027;-70
2023/12/13 09:52:11;;;;;;;3.47;2.63;;;;;;;;;;4955990;28;20027;-70
2023/12/13 09:54:40;;;;;;;3.08;2.55;;;;;;;;;;4959116;28;20031;-71
2023/12/13 09:57:06;;;;;;;3.70;2.92;;;;;;;;;;4961662;28;20034;-70
2023/12/13 09:59:31;;;;;;;3.10;2.80;;;;;;;;;;4960170;28;20377;-70
2023/12/13 10:01:57;;;;;;;3.17;2.58;;;;;;;;;;4959279;28;20035;-71
2023/12/13 10:04:29;;;;;;;2.83;2.58;;;;;;;;;;4958131;28;20027;-70
2023/12/13 10:06:56;;;;;;;3.60;2.63;;;;;;;;;;4959831;28;20109;-69
2023/12/13 10:09:27;;;;;;;2.78;2.55;;;;;;;;;;4963394;28;20027;-70
2023/12/13 10:11:54;;;;;;;3.65;3.15;;;;;;;;;;4960225;28;20034;-69
2023/12/13 10:14:19;;;;;;;4.22;2.85;;;;;;;;;;4963883;28;20039;-69
2023/12/13 10:16:45;;;;;;;3.10;2.65;;;;;;;;;;4962550;28;20033;-69
2023/12/13 10:19:10;;;;;;;2.97;2.58;;;;;;;;;;4947094;28;20031;-70
2023/12/13 10:21:36;;;;;;;2.80;2.60;;;;;;;;;;4966040;28;20033;-70
2023/12/13 10:24:06;;;;;;;2.85;2.50;;;;;;;;;;4961909;28;20026;-69
2023/12/13 10:26:35;;;;;;;3.20;2.80;;;;;;;;;;4964551;28;20073;-69
2023/12/13 10:29:01;;;;;;;2.80;2.60;;;;;;;;;;4947062;28;20483;-69
2023/12/13 10:31:27;;;;;;;3.40;2.42;;;;;;;;;;4964355;28;20086;-70
2023/12/13 10:33:53;;;;;;;2.72;2.53;;;;;;;;;;4960130;28;20034;-71
2023/12/13 10:36:18;;;;;;;2.95;2.58;;;;;;;;;;4959880;28;20106;-70
2023/12/13 10:38:47;;;;;;;2.63;2.42;;;;;;;;;;4961066;28;20027;-69
2023/12/13 10:41:14;;;;;;;2.90;2.50;;;;;;;;;;4960417;28;20031;-70
2023/12/13 10:43:41;;;;;;;3.08;2.75;;;;;;;;;;4956337;29;20036;-68
2023/12/13 10:46:11;;;;;;;2.65;2.45;;;;;;;;;;4956145;29;20507;-69
2023/12/13 10:48:37;;;;;;;3.45;2.63;;;;;;;;;;4956561;29;20127;-69
2023/12/13 10:51:04;;;;;;;3.58;2.75;;;;;;;;;;4956640;29;20106;-67
2023/12/13 10:53:34;;;;;;;5.53;3.28;;;;;;;;;;4956566;29;20369;-66
2023/12/13 10:56:01;;;;;;;2.90;2.20;;;;;;;;;;4954964;29;20115;-67
2023/12/13 10:58:28;;;;;;;3.75;2.40;;;;;;;;;;4952632;29;20035;-69
2023/12/13 11:00:54;;;;;;;2.75;2.05;;;;;;;;;;4956568;29;20029;-67
2023/12/13 11:03:30;;;;;;;3.33;2.10;;;;;;;;;;4956375;29;20039;-68
2023/12/13 11:05:55;;;;;;;3.30;2.13;;;;;;;;;;4956587;29;20024;-68
2023/12/13 11:08:21;;;;;;;2.28;2.03;;;;;;;;;;4956561;29;20027;-67
2023/12/13 11:11:05;;;;;;;2.30;2.10;;;;;;;;;;4939265;29;20038;-67
2023/12/13 11:13:31;;;;;;;11.15;2.30;;;;;;;;;;4956626;29;20031;-68
2023/12/13 11:15:57;;;;;;;5.07;2.30;;;;;;;;;;4956743;29;20472;-69
2023/12/13 11:18:24;;;;;;;4.80;2.45;;;;;;;;;;4938654;29;20472;-72
2023/12/13 11:20:58;;;;;;;9.55;5.38;;;;;;;;;;4956313;29;20468;-73
2023/12/13 11:23:27;;;;;;;9.00;5.53;;;;;;;;;;4956421;29;20031;-73
2023/12/13 11:25:56;;;;;;;9.10;7.07;;;;;;;;;;4938935;29;20361;-73
2023/12/13 11:28:23;;;;;;;9.35;7.93;;;;;;;;;;4954307;29;20078;-73
2023/12/13 11:30:49;;;;;;;8.07;7.07;;;;;;;;;;4956006;29;20024;-73
2023/12/13 11:33:15;;;;;;;8.02;4.78;;;;;;;;;;4955506;29;20380;-73
2023/12/13 11:35:41;;;;;;;4.43;3.97;;;;;;;;;;4955978;29;20039;-73
2023/12/13 11:38:07;;;;;;;4.68;3.90;;;;;;;;;;4955829;29;20035;-73
2023/12/13 11:40:33;;;;;;;5.75;3.88;;;;;;;;;;4956017;29;20502;-73
2023/12/13 11:42:59;;;;;;;4.43;3.63;;;;;;;;;;4956129;29;20039;-73
2023/12/13 11:45:25;;;;;;;4.22;3.72;;;;;;;;;;4938252;29;20493;-73
2023/12/13 11:47:51;;;;;;;6.70;5.07;;;;;;;;;;4955973;29;20051;-73
2023/12/13 11:50:19;;;;;;;5.10;4.60;;;;;;;;;;4955926;29;20098;-73
2023/12/13 11:52:45;;;;;;;5.38;4.00;;;;;;;;;;4956041;29;20050;-73
2023/12/13 11:55:11;;;;;;;4.30;3.90;;;;;;;;;;4955836;29;20050;-73
2023/12/13 11:57:38;;;;;;;5.07;3.75;;;;;;;;;;4955856;29;20035;-73
2023/12/13 12:00:05;;;;;;;5.35;4.05;;;;;;;;;;4956398;29;20375;-73
2023/12/13 12:02:31;;;;;;;6.82;4.00;;;;;;;;;;4955727;29;20036;-73
2023/12/13 12:05:01;;;;;;;5.30;3.97;;;;;;;;;;4955581;29;20031;-73
2023/12/13 12:07:26;;;;;;;;;;;;;;;;;;4956012;29;20020;-73
2023/12/13 12:09:53;;;;;;;4.68;3.70;;;;;;;;;;4955553;29;19910;-73
2023/12/13 12:12:19;;;;;;;5.07;3.58;;;;;;;;;;4955793;29;20357;-73
2023/12/13 12:14:50;;;;;;;4.22;3.70;;;;;;;;;;4955403;29;20094;-73
2023/12/13 12:17:19;;;;;;;5.50;3.40;;;;;;;;;;4955461;29;20038;-73
2023/12/13 12:19:48;;;;;;;4.53;3.63;;;;;;;;;;4955342;29;20492;-73
2023/12/13 12:22:14;;;;;;;3.70;3.40;;;;;;;;;;4955287;29;20111;-73
2023/12/13 12:24:39;;;;;;;9.98;3.65;;;;;;;;;;4955282;29;20118;-73
2023/12/13 12:27:12;;;;;;;6.38;3.65;;;;;;;;;;4955226;29;20126;-73
2023/12/13 12:29:39;;;;;;;6.88;3.17;;;;;;;;;;4954451;28;20035;-73
2023/12/13 12:32:08;;;;;;;3.67;3.30;;;;;;;;;;4955424;29;20107;-73
2023/12/13 12:34:38;;;;;;;3.80;3.40;;;;;;;;;;4937872;29;20389;-73
2023/12/13 12:37:04;;;;;;;3.90;3.50;;;;;;;;;;4955051;29;20034;-73
2023/12/13 12:39:32;;;;;;;4.60;3.50;;;;;;;;;;4954936;29;20027;-73
2023/12/13 12:41:57;;;;;;;5.70;4.50;;;;;;;;;;4954971;29;20042;-73
2023/12/13 12:44:23;;;;;;;4.47;3.58;;;;;;;;;;4955142;29;20023;-73
2023/12/13 12:46:49;;;;;;;7.80;3.40;;;;;;;;;;4954992;29;20377;-73
2023/12/13 12:49:15;;;;;;;4.55;3.78;;;;;;;;;;4954775;29;20027;-73
2023/12/13 12:51:40;;;;;;;4.00;3.58;;;;;;;;;;4954777;29;20031;-73
2023/12/13 12:54:07;;;;;;;5.55;3.88;;;;;;;;;;4937489;29;20035;-73
2023/12/13 12:56:33;;;;;;;5.15;4.18;;;;;;;;;;4954749;29;20031;-73
2023/12/13 12:58:59;;;;;;;5.55;4.38;;;;;;;;;;4954698;29;20023;-72
2023/12/13 13:01:26;;;;;;;6.00;4.40;;;;;;;;;;4954625;29;20026;-72
2023/12/13 13:03:51;;;;;;;5.45;4.65;;;;;;;;;;4954674;29;20027;-72
2023/12/13 13:06:17;;;;;;;4.90;4.40;;;;;;;;;;4954553;29;20106;-72
2023/12/13 13:08:43;;;;;;;5.22;4.63;;;;;;;;;;4954600;29;20032;-72
2023/12/13 13:11:09;;;;;;;7.85;5.50;;;;;;;;;;4954822;29;20035;-73
2023/12/13 13:13:34;;;;;;;7.05;5.07;;;;;;;;;;4955035;29;20455;-72
2023/12/13 13:16:00;;;;;;;7.13;5.05;;;;;;;;;;4954553;29;20117;-73
2023/12/13 13:18:26;;;;;;;7.78;5.60;;;;;;;;;;4954499;29;20027;-73
2023/12/13 13:20:52;;;;;;;6.75;5.07;;;;;;;;;;4954408;29;20059;-73
2023/12/13 13:23:17;;;;;;;8.30;5.40;;;;;;;;;;4954367;29;20489;-72
2023/12/13 13:25:43;;;;;;;8.63;5.00;;;;;;;;;;4954475;29;20045;-72
2023/12/13 13:28:08;;;;;;;6.97;4.82;;;;;;;;;;4954275;29;20054;-72
2023/12/13 13:30:34;;;;;;;7.65;5.60;;;;;;;;;;4954676;29;20487;-72
2023/12/13 13:33:00;;;;;;;6.80;5.28;;;;;;;;;;4954205;29;20031;-72
2023/12/13 13:35:26;;;;;;;7.10;5.18;;;;;;;;;;4954158;29;20503;-72
2023/12/13 13:37:51;;;;;;;7.03;4.93;;;;;;;;;;4954258;29;20032;-73
2023/12/13 13:40:18;;;;;;;6.55;5.05;;;;;;;;;;4954195;28;20120;-73
2023/12/13 13:42:44;;;;;;;5.93;5.00;;;;;;;;;;4958203;29;20484;-73
2023/12/13 13:45:10;;;;;;;7.28;5.55;;;;;;;;;;4958160;29;20121;-73
2023/12/13 13:47:36;;;;;;;6.55;5.05;;;;;;;;;;4957997;29;20388;-73
2023/12/13 13:50:03;;;;;;;7.53;5.75;;;;;;;;;;4958131;29;20029;-73
2023/12/13 13:52:29;;;;;;;6.45;5.20;;;;;;;;;;4958315;29;20058;-73
2023/12/13 13:54:55;;;;;;;7.28;4.95;;;;;;;;;;4958062;29;20109;-73
2023/12/13 13:57:20;;;;;;;8.13;5.70;;;;;;;;;;4958124;29;20067;-73
2023/12/13 13:59:46;;;;;;;8.63;5.70;;;;;;;;;;4957944;29;20027;-73
2023/12/13 14:02:37;;;;;;;11.05;5.57;;;;;;;;;;4957828;29;20023;-73
2023/12/13 14:05:04;;;;;;;7.60;5.45;;;;;;;;;;4957277;29;20048;-73
2023/12/13 14:07:31;;;;;;;7.40;5.35;;;;;;;;;;4957818;29;20023;-73
2023/12/13 14:09:58;;;;;;;7.22;5.35;;;;;;;;;;4957686;29;20038;-73
2023/12/13 14:12:23;;;;;;;6.45;5.30;;;;;;;;;;4957626;29;20023;-73
2023/12/13 14:14:49;;;;;;;7.53;5.57;;;;;;;;;;4957597;29;20038;-73
2023/12/13 14:17:15;;;;;;;8.93;5.72;;;;;;;;;;4957755;29;20357;-73
2023/12/13 14:19:40;;;;;;;8.23;5.38;;;;;;;;;;4957848;29;20031;-73
2023/12/13 14:22:07;;;;;;;7.70;5.65;;;;;;;;;;4957569;29;20027;-73
2023/12/13 14:24:32;;;;;;;8.60;6.00;;;;;;;;;;4957439;29;20128;-73
2023/12/13 14:26:58;;;;;;;8.32;5.40;;;;;;;;;;4957355;29;20044;-73
2023/12/13 14:29:23;;;;;;;6.53;5.25;;;;;;;;;;4957580;29;20031;-73
2023/12/13 14:31:49;;;;;;;8.15;5.35;;;;;;;;;;4957577;29;20484;-73
2023/12/13 14:34:14;;;;;;;7.60;5.53;;;;;;;;;;4957362;29;20385;-73
2023/12/13 14:36:40;;;;;;;6.78;5.20;;;;;;;;;;4957514;29;20035;-73